Time;durP1;ratioP1;P1;durP2;ratioP2;P2;SDS_P1;SDS_P2;PMS_P1;PMS_P2;Temp;Humidity;BMP_temperature;BMP_pressure;BME280_temperature;BME280_humidity;BME280_pressure;Samples;Min_cycle;Max_cycle;Signal;HPM_P1;HPM_P2
2022/02/12 00:00:38;;;;;;;;;;;2.10;96.10;;;;;;6329626;22;19903;-88
2022/02/12 00:03:03;;;;;;;;;;;2.00;96.10;;;;;;6301975;22;19891;-89
2022/02/12 00:05:30;;;;;;;;;;;2.00;96.10;;;;;;6301050;22;19911;-88
2022/02/12 00:07:58;;;;;;;;;;;2.00;96.20;;;;;;6319962;22;19907;-88
2022/02/12 00:10:24;;;;;;;;;;;2.00;96.20;;;;;;6283206;22;19903;-89
2022/02/12 00:12:53;;;;;;;;;;;2.00;96.30;;;;;;6283417;22;19915;-88
2022/02/12 00:15:18;;;;;;;;;;;2.00;96.30;;;;;;6283120;22;19939;-87
2022/02/12 00:17:44;;;;;;;;;;;2.00;96.40;;;;;;6284562;22;19903;-87
2022/02/12 00:20:32;;;;;;;;;;;2.00;96.40;;;;;;6303110;22;19921;-89
2022/02/12 00:23:00;;;;;;;;;;;2.00;96.50;;;;;;6337087;22;19942;-88
2022/02/12 00:25:35;;;;;;;;;;;1.90;96.50;;;;;;6311252;22;19934;-89
2022/02/12 00:28:02;;;;;;;;;;;1.90;96.50;;;;;;6299522;22;19914;-89
2022/02/12 00:30:33;;;;;;;;;;;1.90;96.50;;;;;;6285883;22;19903;-88
2022/02/12 00:33:08;;;;;;;;;;;1.90;96.50;;;;;;6285616;22;19988;-88
2022/02/12 00:35:34;;;;;;;;;;;1.80;96.50;;;;;;6285154;22;19903;-89
2022/02/12 00:38:00;;;;;;;;;;;1.80;96.60;;;;;;6284216;22;19914;-88
2022/02/12 00:40:28;;;;;;;;;;;1.80;96.60;;;;;;6285089;22;19911;-88
2022/02/12 00:42:53;;;;;;;;;;;1.80;96.70;;;;;;6284286;22;19907;-88
2022/02/12 00:45:28;;;;;;;;;;;1.80;96.70;;;;;;6283861;22;19907;-88
2022/02/12 00:47:54;;;;;;;;;;;1.80;96.60;;;;;;6283952;22;20339;-89
2022/02/12 00:50:25;;;;;;;;;;;1.70;96.60;;;;;;6284107;22;19909;-88
2022/02/12 00:52:50;;;;;;;;;;;1.70;96.60;;;;;;6258902;22;19907;-88
2022/02/12 00:55:18;;;;;;;;;;;1.70;96.70;;;;;;6284818;22;19903;-88
2022/02/12 00:57:54;;;;;;;;;;;1.70;96.80;;;;;;6311543;22;19971;-88
2022/02/12 01:00:28;;;;;;;;;;;1.70;96.80;;;;;;6283842;22;19902;-88
2022/02/12 01:02:53;;;;;;;;;;;1.70;96.80;;;;;;6257721;22;20333;-88
2022/02/12 01:05:28;;;;;;;;;;;1.80;96.90;;;;;;6283424;22;19907;-86
2022/02/12 01:08:04;;;;;;;;;;;;;;;;;;;;;
2022/02/12 01:10:32;;;;;;;;;;;1.80;96.90;;;;;;6312260;22;19994;-88
2022/02/12 01:12:58;;;;;;;;;;;1.70;97.00;;;;;;6285462;22;20246;-90
2022/02/12 01:15:23;;;;;;;;;;;1.70;97.00;;;;;;6283813;22;19907;-89
2022/02/12 01:17:58;;;;;;;;;;;1.60;96.90;;;;;;6285577;22;20021;-88
2022/02/12 01:20:26;;;;;;;;;;;1.60;97.20;;;;;;6285367;22;19903;-88
2022/02/12 01:22:52;;;;;;;;;;;1.60;97.00;;;;;;6283395;22;19942;-88
2022/02/12 01:25:18;;;;;;;;;;;1.60;97.00;;;;;;6284323;22;20231;-87
2022/02/12 01:27:47;;;;;;;;;;;1.50;96.90;;;;;;6285302;22;19903;-88
2022/02/12 01:30:15;;;;;;;;;;;1.50;96.90;;;;;;6285168;22;19911;-87
2022/02/12 01:32:41;;;;;;;;;;;1.50;97.20;;;;;;6284632;22;19938;-87
2022/02/12 01:35:10;;;;;;;;;;;1.50;97.00;;;;;;6285605;22;20020;-87
2022/02/12 01:37:36;;;;;;;;;;;1.50;97.00;;;;;;6261140;22;19938;-87
2022/02/12 01:40:05;;;;;;;;;;;1.50;97.10;;;;;;6303091;22;19913;-86
2022/02/12 01:42:31;;;;;;;;;;;1.50;97.10;;;;;;6310655;22;19935;-87
2022/02/12 01:44:58;;;;;;;;;;;1.50;97.20;;;;;;6310729;22;19907;-88
2022/02/12 01:47:24;;;;;;;;;;;1.50;97.20;;;;;;6323096;22;20339;-87
2022/02/12 01:49:53;;;;;;;;;;;1.50;97.20;;;;;;6288878;22;19903;-87
2022/02/12 01:52:21;;;;;;;;;;;1.50;97.20;;;;;;6286682;22;19934;-86
2022/02/12 01:54:57;;;;;;;;;;;1.50;97.20;;;;;;6287955;22;20332;-88
2022/02/12 01:57:25;;;;;;;;;;;1.50;97.30;;;;;;6288622;22;19910;-86
2022/02/12 01:59:56;;;;;;;;;;;1.50;97.30;;;;;;6289895;22;19910;-86
2022/02/12 02:02:25;;;;;;;;;;;1.50;97.30;;;;;;6318364;22;19913;-85
2022/02/12 02:04:53;;;;;;;;;;;1.40;97.20;;;;;;6290164;22;19914;-85
2022/02/12 02:07:22;;;;;;;;;;;1.40;97.30;;;;;;6264901;22;19999;-85
2022/02/12 02:09:48;;;;;;;;;;;1.40;97.30;;;;;;6286122;22;19910;-88
2022/02/12 02:12:17;;;;;;;;;;;1.40;97.30;;;;;;6284067;22;19915;-88
2022/02/12 02:14:45;;;;;;;;;;;1.30;97.50;;;;;;6290183;22;19903;-88
2022/02/12 02:17:20;;;;;;;;;;;1.30;97.30;;;;;;6298356;22;19902;-85
2022/02/12 02:19:54;;;;;;;;;;;1.30;97.30;;;;;;6284002;22;19903;-87
2022/02/12 02:22:29;;;;;;;;;;;1.30;97.40;;;;;;6284102;22;19966;-88
2022/02/12 02:25:00;;;;;;;;;;;1.30;97.40;;;;;;6284139;22;19907;-88
2022/02/12 02:27:28;;;;;;;;;;;1.30;97.40;;;;;;6284355;22;19907;-87
2022/02/12 02:29:54;;;;;;;;;;;1.20;97.40;;;;;;6283889;22;20335;-88
2022/02/12 02:32:23;;;;;;;;;;;1.20;97.40;;;;;;6284057;22;19938;-88
2022/02/12 02:34:52;;;;;;;;;;;1.20;97.50;;;;;;6284332;22;20332;-89
2022/02/12 02:37:23;;;;;;;;;;;1.30;97.60;;;;;;6284385;22;19952;-88
2022/02/12 02:39:48;;;;;;;;;;;1.20;97.60;;;;;;6284172;22;19903;-88
2022/02/12 02:42:14;;;;;;;;;;;1.20;97.60;;;;;;6285271;22;19918;-87
2022/02/12 02:44:40;;;;;;;;;;;1.20;97.70;;;;;;6284284;22;19907;-88
2022/02/12 02:49:55;;;;;;;;;;;1.30;97.70;;;;;;6323592;22;19992;-88
2022/02/12 02:57:52;;;;;;;;;;;1.20;97.70;;;;;;6321195;22;20363;-87
2022/02/12 03:00:18;;;;;;;;;;;1.20;97.80;;;;;;6286083;22;19903;-87
2022/02/12 03:02:43;;;;;;;;;;;1.20;97.80;;;;;;6306459;22;19899;-87
2022/02/12 03:05:09;;;;;;;;;;;1.20;97.80;;;;;;6310259;22;19891;-88
2022/02/12 03:07:40;;;;;;;;;;;1.20;97.80;;;;;;6310194;22;19908;-86
2022/02/12 03:10:08;;;;;;;;;;;1.20;97.90;;;;;;6271617;22;19911;-87
2022/02/12 03:12:34;;;;;;;;;;;1.20;98.00;;;;;;6283659;22;19941;-88
2022/02/12 03:15:02;;;;;;;;;;;1.20;97.90;;;;;;6284576;22;19985;-87
2022/02/12 03:17:27;;;;;;;;;;;1.20;97.90;;;;;;6285271;22;20225;-88
2022/02/12 03:19:53;;;;;;;;;;;1.20;97.90;;;;;;6284486;22;19929;-88
2022/02/12 03:22:22;;;;;;;;;;;1.10;97.90;;;;;;6310732;22;19945;-88
2022/02/12 03:24:50;;;;;;;;;;;1.10;97.90;;;;;;6283798;22;19914;-88
2022/02/12 03:27:15;;;;;;;;;;;1.10;97.90;;;;;;6284606;22;19982;-88
2022/02/12 03:29:41;;;;;;;;;;;1.10;97.90;;;;;;6283563;22;19910;-89
2022/02/12 03:32:06;;;;;;;;;;;1.10;97.90;;;;;;6284707;22;19903;-88
2022/02/12 03:34:35;;;;;;;;;;;1.00;98.00;;;;;;6285828;22;19982;-87
2022/02/12 03:37:02;;;;;;;;;;;1.00;98.00;;;;;;6284638;22;19903;-88
2022/02/12 03:39:30;;;;;;;;;;;1.00;98.00;;;;;;6284919;22;19990;-88
2022/02/12 03:41:59;;;;;;;;;;;1.00;98.00;;;;;;6283377;22;19945;-88
2022/02/12 03:44:32;;;;;;;;;;;1.00;98.00;;;;;;6283586;22;19914;-89
2022/02/12 03:46:57;;;;;;;;;;;1.00;98.00;;;;;;6283943;22;19903;-88
2022/02/12 03:49:23;;;;;;;;;;;1.00;98.00;;;;;;6283290;22;19903;-87
2022/02/12 03:51:53;;;;;;;;;;;1.00;98.00;;;;;;6284156;22;19903;-87
2022/02/12 03:54:19;;;;;;;;;;;1.00;98.10;;;;;;6285584;22;19902;-87
2022/02/12 03:56:47;;;;;;;;;;;1.00;98.10;;;;;;6259656;22;19907;-88
2022/02/12 03:59:13;;;;;;;;;;;1.00;98.00;;;;;;6286143;22;19923;-88
2022/02/12 04:01:39;;;;;;;;;;;1.00;98.10;;;;;;6285156;22;19902;-88
2022/02/12 04:04:07;;;;;;;;;;;1.00;98.10;;;;;;6285512;22;19925;-87
2022/02/12 04:06:35;;;;;;;;;;;1.00;98.10;;;;;;6285965;22;19910;-87
2022/02/12 04:09:00;;;;;;;;;;;1.00;98.10;;;;;;6285610;22;19938;-87
2022/02/12 04:11:28;;;;;;;;;;;1.00;98.10;;;;;;6285447;22;19903;-87
2022/02/12 04:13:54;;;;;;;;;;;1.00;98.10;;;;;;6285305;22;19974;-88
2022/02/12 04:16:27;;;;;;;;;;;0.90;98.10;;;;;;6285723;22;19903;-89
2022/02/12 04:18:53;;;;;;;;;;;1.00;98.10;;;;;;6260715;22;19907;-87
2022/02/12 04:21:26;;;;;;;;;;;1.00;98.20;;;;;;6293588;22;19917;-88
2022/02/12 04:23:56;;;;;;;;;;;1.00;98.30;;;;;;6311559;22;19947;-88
2022/02/12 04:26:27;;;;;;;;;;;1.00;98.30;;;;;;6286505;22;19891;-89
2022/02/12 04:29:01;;;;;;;;;;;1.00;98.20;;;;;;6337955;22;19898;-88
2022/02/12 04:31:27;;;;;;;;;;;1.00;98.20;;;;;;6259844;22;19907;-88
2022/02/12 04:33:58;;;;;;;;;;;1.00;98.20;;;;;;6285694;22;20331;-87
2022/02/12 04:36:28;;;;;;;;;;;1.00;98.20;;;;;;6312388;22;19935;-88
2022/02/12 04:38:57;;;;;;;;;;;1.00;98.20;;;;;;6285281;22;19903;-87
2022/02/12 04:41:22;;;;;;;;;;;0.90;98.10;;;;;;6259541;22;19907;-87
2022/02/12 04:43:50;;;;;;;;;;;0.90;98.10;;;;;;6285446;22;19913;-88
2022/02/12 04:46:19;;;;;;;;;;;0.90;98.10;;;;;;6259080;22;19921;-89
2022/02/12 04:48:48;;;;;;;;;;;0.90;98.10;;;;;;6284607;22;19910;-88
2022/02/12 04:51:19;;;;;;;;;;;0.90;98.10;;;;;;6285011;22;19907;-88
2022/02/12 04:53:44;;;;;;;;;;;0.90;98.20;;;;;;6284097;22;19985;-87
2022/02/12 04:56:10;;;;;;;;;;;0.90;98.20;;;;;;6285248;22;20267;-88
2022/02/12 04:58:39;;;;;;;;;;;0.90;98.10;;;;;;6284651;22;19913;-88
2022/02/12 05:01:07;;;;;;;;;;;0.90;98.20;;;;;;6285314;22;20363;-88
2022/02/12 05:03:48;;;;;;;;;;;0.90;98.10;;;;;;6284854;22;19910;-87
2022/02/12 05:06:16;;;;;;;;;;;0.90;98.10;;;;;;6313064;22;19911;-87
2022/02/12 05:08:42;;;;;;;;;;;0.90;98.10;;;;;;6284917;22;19987;-87
2022/02/12 05:11:08;;;;;;;;;;;0.80;98.10;;;;;;6285173;22;19950;-88
2022/02/12 05:13:33;;;;;;;;;;;0.90;98.20;;;;;;6258929;22;19926;-87
2022/02/12 05:15:59;;;;;;;;;;;0.80;98.10;;;;;;6284943;22;19934;-88
2022/02/12 05:18:25;;;;;;;;;;;0.90;98.20;;;;;;6284852;22;19925;-88
2022/02/12 05:20:50;;;;;;;;;;;0.90;98.20;;;;;;6284886;22;19952;-88
2022/02/12 05:23:18;;;;;;;;;;;0.90;98.20;;;;;;6259167;22;19997;-87
2022/02/12 05:25:46;;;;;;;;;;;0.90;98.30;;;;;;6284830;22;19907;-88
2022/02/12 05:28:14;;;;;;;;;;;0.90;98.30;;;;;;6284908;22;19902;-87
2022/02/12 05:30:41;;;;;;;;;;;0.90;98.30;;;;;;6285012;22;19906;-88
2022/02/12 05:33:12;;;;;;;;;;;1.00;98.30;;;;;;6286501;22;19911;-87
2022/02/12 05:35:41;;;;;;;;;;;1.00;98.30;;;;;;6285300;22;19910;-88
2022/02/12 05:38:07;;;;;;;;;;;1.00;98.40;;;;;;6313174;22;19903;-87
2022/02/12 05:40:33;;;;;;;;;;;1.00;98.40;;;;;;6287362;22;19957;-89
2022/02/12 05:43:00;;;;;;;;;;;1.00;98.40;;;;;;6311059;22;19906;-86
2022/02/12 05:45:35;;;;;;;;;;;1.10;98.40;;;;;;6310957;22;19906;-90
2022/02/12 05:48:01;;;;;;;;;;;1.10;98.50;;;;;;6310894;22;19891;-88
2022/02/12 05:50:29;;;;;;;;;;;1.10;98.50;;;;;;6308471;22;19907;-86
2022/02/12 05:52:57;;;;;;;;;;;1.20;98.80;;;;;;6305508;22;19951;-88
2022/02/12 05:55:24;;;;;;;;;;;1.20;98.50;;;;;;6273513;22;19907;-87
2022/02/12 05:58:01;;;;;;;;;;;1.20;98.50;;;;;;6285052;22;19902;-88
2022/02/12 06:00:27;;;;;;;;;;;1.20;98.50;;;;;;6285155;22;19903;-87
2022/02/12 06:02:55;;;;;;;;;;;1.30;98.50;;;;;;6312447;22;19938;-87
2022/02/12 06:05:26;;;;;;;;;;;1.30;98.50;;;;;;6284740;22;19911;-87
2022/02/12 06:07:51;;;;;;;;;;;1.40;98.50;;;;;;6260545;22;19914;-88
2022/02/12 06:10:26;;;;;;;;;;;1.40;98.50;;;;;;6258057;22;20236;-88
2022/02/12 06:13:00;;;;;;;;;;;1.40;98.50;;;;;;6311617;22;19993;-88
2022/02/12 06:15:26;;;;;;;;;;;1.40;98.40;;;;;;6260812;22;20232;-87
2022/02/12 06:17:59;;;;;;;;;;;1.40;98.40;;;;;;6284041;22;19903;-87
2022/02/12 06:20:25;;;;;;;;;;;1.40;98.40;;;;;;6259395;22;19980;-88
2022/02/12 06:22:56;;;;;;;;;;;1.30;98.40;;;;;;6283816;22;19911;-88
2022/02/12 06:25:24;;;;;;;;;;;1.30;98.40;;;;;;6283263;22;20244;-88
2022/02/12 06:27:53;;;;;;;;;;;1.30;98.40;;;;;;6284614;22;19947;-87
2022/02/12 06:30:22;;;;;;;;;;;1.30;98.40;;;;;;6283721;22;19973;-87
2022/02/12 06:32:48;;;;;;;;;;;1.30;98.40;;;;;;6283398;22;19909;-87
2022/02/12 06:35:15;;;;;;;;;;;1.20;98.40;;;;;;6283867;22;19923;-88
2022/02/12 06:37:43;;;;;;;;;;;1.20;98.40;;;;;;6283603;22;19903;-88
2022/02/12 06:40:18;;;;;;;;;;;1.20;98.40;;;;;;6258651;22;19907;-87
2022/02/12 06:42:51;;;;;;;;;;;1.20;98.40;;;;;;6283830;22;19907;-88
2022/02/12 06:45:19;;;;;;;;;;;1.10;98.30;;;;;;6283985;22;20011;-87
2022/02/12 06:47:48;;;;;;;;;;;1.20;98.40;;;;;;6283958;22;19949;-86
2022/02/12 06:50:14;;;;;;;;;;;1.20;98.40;;;;;;6284256;22;20198;-88
2022/02/12 06:52:39;;;;;;;;;;;1.20;98.40;;;;;;6284465;22;19946;-87
2022/02/12 06:55:17;;;;;;;;;;;1.20;98.40;;;;;;6284652;22;19907;-88
2022/02/12 06:57:56;;;;;;;;;;;1.20;98.50;;;;;;6288005;22;19903;-88
2022/02/12 07:00:30;;;;;;;;;;;1.20;98.50;;;;;;6285937;22;19891;-91
2022/02/12 07:02:59;;;;;;;;;;;1.20;98.50;;;;;;6310471;22;19926;-87
2022/02/12 07:05:27;;;;;;;;;;;1.20;98.50;;;;;;6309979;22;19898;-89
2022/02/12 07:07:56;;;;;;;;;;;1.20;98.50;;;;;;6309699;22;19891;-89
2022/02/12 07:10:32;;;;;;;;;;;1.30;98.50;;;;;;6306352;22;19914;-88
2022/02/12 07:13:00;;;;;;;;;;;1.30;98.60;;;;;;6286687;22;19921;-87
2022/02/12 07:15:25;;;;;;;;;;;1.30;98.60;;;;;;6283420;22;19903;-88
2022/02/12 07:17:53;;;;;;;;;;;1.30;98.60;;;;;;6283548;22;20377;-87
2022/02/12 07:20:48;;;;;;;;;;;1.30;98.60;;;;;;6283630;22;19907;-90
2022/02/12 07:23:17;;;;;;;;;;;1.30;98.60;;;;;;6266910;22;19963;-88
2022/02/12 07:28:43;;;;;;;;;;;1.30;98.60;;;;;;6313310;22;19903;-89
2022/02/12 07:34:08;;;;;;;;;;;1.40;98.60;;;;;;6313309;22;19926;-92
2022/02/12 07:36:53;;;;;;;;;;;1.40;98.60;;;;;;6285647;22;19903;-91
2022/02/12 07:39:45;;;;;;;;;;;1.40;98.50;;;;;;6285542;22;19918;-90
2022/02/12 07:42:15;;;;;;;;;;;1.40;98.50;;;;;;6285558;22;20328;-89
2022/02/12 07:44:48;;;;;;;;;;;1.40;98.50;;;;;;6260324;22;19911;-88
2022/02/12 07:47:23;;;;;;;;;;;1.40;98.50;;;;;;6285772;22;19907;-89
2022/02/12 07:50:14;;;;;;;;;;;1.50;98.50;;;;;;6285505;22;19903;-89
2022/02/12 07:52:45;;;;;;;;;;;1.50;98.50;;;;;;6284481;22;19911;-90
2022/02/12 07:55:30;;;;;;;;;;;;;;;;;;;;;
2022/02/12 07:58:18;;;;;;;;;;;1.60;98.50;;;;;;6312707;22;19990;-91
2022/02/12 08:01:31;;;;;;;;;;;;;;;;;;;;;
2022/02/12 08:04:12;;;;;;;;;;;1.70;98.40;;;;;;6309382;22;19961;-91
2022/02/12 08:11:22;;;;;;;;;;;1.80;98.40;;;;;;6313624;22;19909;-89
2022/02/12 08:13:02;;;;;;;;;;;1.80;98.30;;;;;;6306848;22;20321;-93
2022/02/12 08:15:31;;;;;;;;;;;1.90;98.30;;;;;;6285289;22;19942;-90
2022/02/12 08:21:05;;;;;;;;;;;2.00;98.20;;;;;;6257265;22;19906;-92
2022/02/12 08:23:39;;;;;;;;;;;2.00;98.20;;;;;;6301711;22;19926;-90
2022/02/12 08:26:08;;;;;;;;;;;2.10;98.20;;;;;;6308700;22;19891;-93
2022/02/12 08:28:57;;;;;;;;;;;2.10;98.20;;;;;;6311685;22;19897;-90
2022/02/12 08:31:25;;;;;;;;;;;2.20;98.20;;;;;;6299741;22;19946;-93
2022/02/12 08:33:56;;;;;;;;;;;2.20;98.20;;;;;;6285845;22;19938;-91
2022/02/12 08:36:44;;;;;;;;;;;2.30;98.20;;;;;;6288089;22;19903;-92
2022/02/12 08:39:13;;;;;;;;;;;2.30;98.10;;;;;;6298831;22;19918;-92
2022/02/12 08:41:54;;;;;;;;;;;2.40;98.10;;;;;;6299089;22;20045;-91
2022/02/12 08:44:20;;;;;;;;;;;2.40;98.00;;;;;;6304494;22;19907;-91
2022/02/12 08:46:53;;;;;;;;;;;2.40;98.00;;;;;;6307774;22;19913;-91
2022/02/12 08:49:39;;;;;;;;;;;2.40;97.90;;;;;;6278807;22;19907;-92
2022/02/12 08:52:40;;;;;;;;;;;2.50;97.90;;;;;;6285777;22;19903;-91
2022/02/12 08:55:28;;;;;;;;;;;2.50;97.90;;;;;;6291029;22;19926;-90
2022/02/12 08:58:09;;;;;;;;;;;2.50;97.90;;;;;;6311465;22;19986;-93
2022/02/12 09:00:58;;;;;;;;;;;2.60;97.90;;;;;;6285703;22;19903;-92
2022/02/12 09:06:40;;;;;;;;;;;2.60;97.80;;;;;;6300339;22;20340;-91
2022/02/12 09:09:09;;;;;;;;;;;2.70;97.90;;;;;;6312611;22;19990;-90
2022/02/12 09:12:02;;;;;;;;;;;;;;;;;;;;;
2022/02/12 09:17:39;;;;;;;;;;;2.80;97.80;;;;;;6289120;22;19911;-92
2022/02/12 09:20:21;;;;;;;;;;;;;;;;;;;;;
2022/02/12 09:26:16;;;;;;;;;;;3.00;97.70;;;;;;6259745;22;19907;-91
2022/02/12 09:29:33;;;;;;;;;;;3.10;97.60;;;;;;6263499;22;19902;-95
2022/02/12 09:32:08;;;;;;;;;;;3.10;97.60;;;;;;6295934;22;19934;-92
2022/02/12 09:34:36;;;;;;;;;;;3.20;97.60;;;;;;6270696;22;19910;-92
2022/02/12 09:37:12;;;;;;;;;;;3.30;97.50;;;;;;6285080;22;19910;-92
2022/02/12 09:40:04;;;;;;;;;;;3.40;97.50;;;;;;6285613;22;19945;-93
2022/02/12 09:43:06;;;;;;;;;;;3.40;97.40;;;;;;6263452;22;19942;-93
2022/02/12 09:45:39;;;;;;;;;;;3.50;97.40;;;;;;6292182;22;19911;-94
2022/02/12 09:48:10;;;;;;;;;;;3.60;97.30;;;;;;6310979;22;19913;-92
2022/02/12 09:50:37;;;;;;;;;;;3.70;97.30;;;;;;6310446;22;19891;-89
2022/02/12 09:53:18;;;;;;;;;;;3.80;97.20;;;;;;6309948;22;19895;-93
2022/02/12 09:56:08;;;;;;;;;;;3.80;97.00;;;;;;6290846;22;19925;-91
2022/02/12 09:58:43;;;;;;;;;;;3.90;96.90;;;;;;6311488;22;19903;-92
2022/02/12 10:01:27;;;;;;;;;;;;;;;;;;;;;
2022/02/12 10:07:32;;;;;;;;;;;4.10;96.50;;;;;;6206898;22;19908;-92
2022/02/12 10:10:33;;;;;;;;;;;4.20;96.50;;;;;;6284250;22;19934;-90
2022/02/12 10:19:20;;;;;;;;;;;4.50;96.00;;;;;;6058746;23;20027;-92
2022/02/12 10:22:41;;;;;;;;;;;4.50;95.90;;;;;;6121164;23;19952;-93
2022/02/12 10:25:28;;;;;;;;;;;;;;;;;;;;;
2022/02/12 10:28:33;;;;;;;;;;;;;;;;;;;;;
2022/02/12 10:31:52;;;;;;;;;;;4.80;95.50;;;;;;6066183;23;20280;-93
2022/02/12 10:34:40;;;;;;;;;;;4.80;95.50;;;;;;6068481;23;19905;-95
2022/02/12 10:37:09;;;;;;;;;;;4.90;95.10;;;;;;6017133;23;19964;-94
2022/02/12 10:39:55;;;;;;;;;;;5.00;95.20;;;;;;6017039;23;19953;-94
2022/02/12 10:42:44;;;;;;;;;;;;;;;;;;;;;
2022/02/12 10:45:46;;;;;;;;;;;;;;;;;;;;;
2022/02/12 10:48:38;;;;;;;;;;;5.10;95.00;;;;;;6312597;22;20021;-92
2022/02/12 10:54:38;;;;;;;;;;;5.20;94.80;;;;;;6123182;23;19911;-94
2022/02/12 10:57:40;;;;;;;;;;;;;;;;;;;;;
2022/02/12 11:12:36;;;;;;;;;;;5.40;93.90;;;;;;6179345;23;19900;-93
2022/02/12 11:21:38;;;;;;;;;;;5.50;93.70;;;;;;6118082;23;19995;-92
2022/02/12 11:24:16;;;;;;;;;;;5.60;93.30;;;;;;6131818;23;19913;-93
2022/02/12 11:32:39;;;;;;;;;;;5.80;93.30;;;;;;6313716;22;19907;-94
2022/02/12 11:35:17;;;;;;;;;;;5.80;93.30;;;;;;6266594;22;19977;-93
2022/02/12 11:38:01;;;;;;;;;;;5.90;92.90;;;;;;6306201;22;19947;-94
2022/02/12 11:40:59;;;;;;;;;;;6.00;92.90;;;;;;6278173;22;19907;-94
2022/02/12 11:53:10;;;;;;;;;;;6.30;92.80;;;;;;6316918;22;19903;-94
2022/02/12 11:56:08;;;;;;;;;;;6.40;92.50;;;;;;6290237;22;19907;-94
2022/02/12 12:01:32;;;;;;;;;;;6.50;92.40;;;;;;6289921;22;19910;-94
2022/02/12 12:10:53;;;;;;;;;;;;;;;;;;;;;
2022/02/12 12:16:32;;;;;;;;;;;;;;;;;;;;;
2022/02/12 12:19:16;;;;;;;;;;;;;;;;;;;;;
2022/02/12 12:25:08;;;;;;;;;;;6.90;91.80;;;;;;6224805;23;19912;-95
2022/02/12 12:27:41;;;;;;;;;;;6.90;91.60;;;;;;6168887;23;19910;-94
2022/02/12 12:31:07;;;;;;;;;;;;;;;;;;;;;
2022/02/12 12:34:09;;;;;;;;;;;;;;;;;;;;;
2022/02/12 12:36:59;;;;;;;;;;;;;;;;;;;;;
2022/02/12 12:39:43;;;;;;;;;;;;;;;;;;;;;
2022/02/12 12:54:46;;;;;;;;;;;7.30;89.70;;;;;;6111052;23;19929;-94
2022/02/12 13:07:55;;;;;;;;;;;7.40;86.10;;;;;;6076020;23;19913;-94
2022/02/12 13:11:08;;;;;;;;;;;;;;;;;;;;;
2022/02/12 13:13:47;;;;;;;;;;;;;;;;;;;;;
2022/02/12 13:16:23;;;;;;;;;;;7.50;85.60;;;;;;6304676;22;20285;-94
2022/02/12 13:19:21;;;;;;;;;;;7.60;85.00;;;;;;6291378;22;19903;-93
2022/02/12 13:22:37;;;;;;;;;;;;;;;;;;;;;
2022/02/12 13:25:48;;;;;;;;;;;;;;;;;;;;;
2022/02/12 13:44:27;;;;;;;;;;;7.60;81.40;;;;;;5968059;24;19968;-92
2022/02/12 13:47:37;;;;;;;;;;;7.60;81.70;;;;;;6119857;23;19912;-91
2022/02/12 13:50:24;;;;;;;;;;;;;;;;;;;;;
2022/02/12 13:53:32;;;;;;;;;;;;;;;;;;;;;
2022/02/12 13:56:21;;;;;;;;;;;;;;;;;;;;;
2022/02/12 13:59:09;;;;;;;;;;;7.60;81.20;;;;;;6293313;22;19942;-91
2022/02/12 14:02:04;;;;;;;;;;;7.60;80.70;;;;;;6290187;22;19903;-92
2022/02/12 14:04:35;;;;;;;;;;;7.60;80.60;;;;;;6290391;22;19926;-91
2022/02/12 14:07:52;;;;;;;;;;;;;;;;;;;;;
2022/02/12 14:10:12;;;;;;;;;;;7.70;80.60;;;;;;6302547;22;19921;-90
2022/02/12 14:13:01;;;;;;;;;;;;;;;;;;;;;
2022/02/12 14:15:35;;;;;;;;;;;7.60;80.70;;;;;;6337271;22;19891;-93
2022/02/12 14:21:42;;;;;;;;;;;;;;;;;;;;;
2022/02/12 14:24:19;;;;;;;;;;;7.70;80.20;;;;;;6288670;22;20304;-91
2022/02/12 14:26:49;;;;;;;;;;;7.70;80.40;;;;;;6284786;22;20309;-92
2022/02/12 14:29:28;;;;;;;;;;;;;;;;;;;;;
2022/02/12 14:32:08;;;;;;;;;;;7.70;80.20;;;;;;6287039;22;19986;-92
2022/02/12 14:34:47;;;;;;;;;;;;;;;;;;;;;
2022/02/12 14:37:39;;;;;;;;;;;7.70;80.30;;;;;;6319366;22;20301;-92
2022/02/12 14:40:14;;;;;;;;;;;7.80;80.10;;;;;;6295159;22;20344;-91
2022/02/12 14:42:45;;;;;;;;;;;7.80;79.50;;;;;;6302375;22;19919;-92
2022/02/12 14:45:22;;;;;;;;;;;7.90;79.10;;;;;;6309213;22;19910;-92
2022/02/12 14:47:58;;;;;;;;;;;7.90;79.10;;;;;;6307837;22;19895;-91
2022/02/12 14:50:24;;;;;;;;;;;7.90;78.70;;;;;;6304749;22;19944;-89
2022/02/12 14:55:52;;;;;;;;;;;7.90;78.30;;;;;;6307008;22;19903;-89
2022/02/12 14:58:46;;;;;;;;;;;7.90;77.80;;;;;;6290250;22;19947;-88
2022/02/12 15:01:18;;;;;;;;;;;7.90;77.80;;;;;;6290295;22;19914;-89
2022/02/12 15:04:03;;;;;;;;;;;7.80;78.10;;;;;;6289242;22;19911;-91
2022/02/12 15:12:47;;;;;;;;;;;7.70;77.90;;;;;;6317044;22;19903;-91
2022/02/12 15:24:28;;;;;;;;;;;7.60;77.50;;;;;;6222317;23;19999;-90
2022/02/12 15:27:17;;;;;;;;;;;7.60;77.20;;;;;;6216085;22;19903;-90
2022/02/12 15:29:44;;;;;;;;;;;7.50;77.00;;;;;;6290966;22;19903;-90
2022/02/12 15:32:24;;;;;;;;;;;7.50;77.30;;;;;;6290082;22;19910;-90
2022/02/12 15:35:06;;;;;;;;;;;7.50;77.50;;;;;;6253624;22;19939;-91
2022/02/12 15:37:32;;;;;;;;;;;7.40;77.60;;;;;;6289606;22;19907;-91
2022/02/12 15:42:53;;;;;;;;;;;7.40;78.00;;;;;;6281807;22;19899;-90
2022/02/12 15:45:31;;;;;;;;;;;;;;;;;;;;;
2022/02/12 15:48:04;;;;;;;;;;;7.30;77.90;;;;;;6320908;22;19899;-88
2022/02/12 15:50:32;;;;;;;;;;;7.30;77.70;;;;;;6311153;22;19907;-90
2022/02/12 15:53:08;;;;;;;;;;;7.30;77.80;;;;;;6270943;22;19973;-90
2022/02/12 15:55:49;;;;;;;;;;;;;;;;;;;;;
2022/02/12 15:58:27;;;;;;;;;;;7.20;77.50;;;;;;6311153;22;19926;-90
2022/02/12 16:00:55;;;;;;;;;;;7.20;77.80;;;;;;6292709;22;19903;-89
2022/02/12 16:03:49;;;;;;;;;;;7.20;78.20;;;;;;6290476;22;20245;-90
2022/02/12 16:06:38;;;;;;;;;;;7.10;78.10;;;;;;6289328;22;19972;-89
2022/02/12 16:09:13;;;;;;;;;;;7.10;78.20;;;;;;6290688;22;19903;-90
2022/02/12 16:11:41;;;;;;;;;;;7.00;78.20;;;;;;6291511;22;19902;-91
2022/02/12 16:14:11;;;;;;;;;;;7.00;78.20;;;;;;6263981;22;19913;-89
2022/02/12 16:16:45;;;;;;;;;;;7.00;78.30;;;;;;6292319;22;19910;-90
2022/02/12 16:19:21;;;;;;;;;;;6.90;78.20;;;;;;6291322;22;19951;-90
2022/02/12 16:22:03;;;;;;;;;;;6.90;78.20;;;;;;6267724;22;19907;-88
2022/02/12 16:24:36;;;;;;;;;;;6.80;78.40;;;;;;6290072;22;19917;-90
2022/02/12 16:27:12;;;;;;;;;;;6.80;78.70;;;;;;6291305;22;19938;-88
2022/02/12 16:29:37;;;;;;;;;;;6.70;78.70;;;;;;6290960;22;19903;-89
2022/02/12 16:32:14;;;;;;;;;;;6.70;78.80;;;;;;6290221;22;19910;-89
2022/02/12 16:34:42;;;;;;;;;;;6.60;79.00;;;;;;6317891;22;19907;-88
2022/02/12 16:37:08;;;;;;;;;;;6.60;79.30;;;;;;6289819;22;20334;-90
2022/02/12 16:39:47;;;;;;;;;;;6.60;79.30;;;;;;6290131;22;19903;-87
2022/02/12 16:42:13;;;;;;;;;;;6.50;79.30;;;;;;6265984;22;19914;-88
2022/02/12 16:44:41;;;;;;;;;;;6.50;79.50;;;;;;6291152;22;20222;-89
2022/02/12 16:47:10;;;;;;;;;;;6.40;79.60;;;;;;6290929;22;19926;-88
2022/02/12 16:49:39;;;;;;;;;;;6.40;79.70;;;;;;6291632;22;19956;-91
2022/02/12 16:52:06;;;;;;;;;;;6.30;79.90;;;;;;6291466;22;19903;-89
2022/02/12 16:54:42;;;;;;;;;;;6.30;80.00;;;;;;6291804;22;19917;-90
2022/02/12 16:57:18;;;;;;;;;;;6.30;80.20;;;;;;6292288;22;19906;-90
2022/02/12 16:59:51;;;;;;;;;;;6.20;80.30;;;;;;6291328;22;19903;-89
2022/02/12 17:02:38;;;;;;;;;;;6.20;80.50;;;;;;6267197;22;19907;-89
2022/02/12 17:05:07;;;;;;;;;;;6.10;80.50;;;;;;6291501;22;19903;-90
2022/02/12 17:07:37;;;;;;;;;;;6.10;80.50;;;;;;6292761;22;19903;-89
2022/02/12 17:10:03;;;;;;;;;;;6.00;80.60;;;;;;6292533;22;19947;-90
2022/02/12 17:12:32;;;;;;;;;;;6.00;80.90;;;;;;6296563;22;19898;-90
2022/02/12 17:15:11;;;;;;;;;;;;;;;;;;;;;
2022/02/12 17:18:29;;;;;;;;;;;5.90;81.20;;;;;;6313868;22;19891;-89
2022/02/12 17:21:19;;;;;;;;;;;5.90;81.40;;;;;;6304766;22;19903;-89
2022/02/12 17:23:48;;;;;;;;;;;5.80;81.60;;;;;;6277653;22;19933;-91
2022/02/12 17:26:18;;;;;;;;;;;5.80;81.90;;;;;;6264745;22;19907;-89
2022/02/12 17:28:53;;;;;;;;;;;5.70;82.00;;;;;;6291282;22;19910;-89
2022/02/12 17:31:43;;;;;;;;;;;;;;;;;;;;;
2022/02/12 17:34:09;;;;;;;;;;;5.60;82.40;;;;;;6317784;22;19946;-90
2022/02/12 17:36:45;;;;;;;;;;;5.60;82.60;;;;;;6291480;22;19903;-89
2022/02/12 17:39:19;;;;;;;;;;;5.60;82.80;;;;;;6291799;22;19999;-90
2022/02/12 17:41:45;;;;;;;;;;;5.50;82.80;;;;;;6291507;22;19907;-89
2022/02/12 17:44:31;;;;;;;;;;;5.50;83.10;;;;;;6294973;22;19994;-90
2022/02/12 17:47:13;;;;;;;;;;;5.40;83.20;;;;;;6297912;22;19942;-90
2022/02/12 17:49:41;;;;;;;;;;;5.40;83.50;;;;;;6303420;22;19908;-90
2022/02/12 17:52:12;;;;;;;;;;;5.30;83.70;;;;;;6303034;22;19903;-89
2022/02/12 17:54:40;;;;;;;;;;;5.30;83.80;;;;;;6274958;22;19903;-90
2022/02/12 17:57:35;;;;;;;;;;;;;;;;;;;;;
2022/02/12 18:00:06;;;;;;;;;;;5.30;84.10;;;;;;6287024;22;19930;-88
2022/02/12 18:02:40;;;;;;;;;;;5.20;84.30;;;;;;6235980;22;19915;-89
2022/02/12 18:05:13;;;;;;;;;;;5.20;84.50;;;;;;6234809;22;19911;-89
2022/02/12 18:07:42;;;;;;;;;;;5.10;84.80;;;;;;6234691;22;19942;-88
2022/02/12 18:10:12;;;;;;;;;;;5.10;84.90;;;;;;6285470;22;19949;-89
2022/02/12 18:12:47;;;;;;;;;;;5.10;85.00;;;;;;6259490;22;19929;-90
2022/02/12 18:15:22;;;;;;;;;;;5.10;85.10;;;;;;6285175;22;19907;-90
2022/02/12 18:20:57;;;;;;;;;;;5.10;85.30;;;;;;6265003;22;19990;-89
2022/02/12 18:23:50;;;;;;;;;;;5.00;85.50;;;;;;6258393;22;19939;-89
2022/02/12 18:26:26;;;;;;;;;;;5.00;85.60;;;;;;6260250;22;19907;-90
2022/02/12 18:28:58;;;;;;;;;;;5.00;85.80;;;;;;6259917;22;19911;-89